createdAt,value
2018-08-16T00:00:15.648Z,17.61
2018-08-16T00:02:45.217Z,17.54
2018-08-16T00:05:14.462Z,17.47
2018-08-16T00:07:43.503Z,17.43
2018-08-16T00:10:13.759Z,17.38
2018-08-16T00:12:44.082Z,17.37
2018-08-16T00:15:13.497Z,17.31
2018-08-16T00:17:42.470Z,17.32
2018-08-16T00:20:12.110Z,17.26
2018-08-16T00:22:41.173Z,17.22
2018-08-16T00:25:10.786Z,17.19
2018-08-16T00:27:39.741Z,17.08
2018-08-16T00:30:15.057Z,17.08
2018-08-16T00:32:44.363Z,17.02
2018-08-16T00:35:13.499Z,16.96
2018-08-16T00:37:42.621Z,16.96
2018-08-16T00:40:13.574Z,16.89
2018-08-16T00:42:42.549Z,16.89
2018-08-16T00:45:11.864Z,16.81
2018-08-16T00:47:40.800Z,16.81
2018-08-16T00:50:11.081Z,16.76
2018-08-16T00:52:40.005Z,16.70
2018-08-16T00:55:10.265Z,16.69
2018-08-16T00:57:39.600Z,16.67
2018-08-16T01:00:10.456Z,16.67
2018-08-16T01:02:39.470Z,16.66
2018-08-16T01:05:08.566Z,16.65
2018-08-16T01:07:37.522Z,16.59
2018-08-16T01:10:08.200Z,16.54
2018-08-16T01:12:37.216Z,16.50
2018-08-16T01:15:07.651Z,16.50
2018-08-16T01:17:36.572Z,16.43
2018-08-16T01:20:05.596Z,16.43
2018-08-16T01:22:34.485Z,16.42
2018-08-16T01:25:03.599Z,16.40
2018-08-16T01:27:32.553Z,16.33
2018-08-16T01:30:01.522Z,16.35
2018-08-16T01:32:30.460Z,16.33
2018-08-16T01:34:59.443Z,16.28
2018-08-16T01:37:28.558Z,16.24
2018-08-16T01:39:57.546Z,16.25
2018-08-16T01:42:26.652Z,16.17
2018-08-16T01:44:55.583Z,16.11
2018-08-16T01:47:24.527Z,16.08
2018-08-16T01:49:53.541Z,16.06
2018-08-16T01:52:22.515Z,16.07
2018-08-16T01:54:51.452Z,16.08
2018-08-16T01:57:20.422Z,16.09
2018-08-16T01:59:49.341Z,16.09
2018-08-16T02:02:18.277Z,16.11
2018-08-16T02:04:47.225Z,16.09
2018-08-16T02:07:16.241Z,16.10
2018-08-16T02:09:45.213Z,16.11
2018-08-16T02:12:14.143Z,16.05
2018-08-16T02:14:43.117Z,16.04
2018-08-16T02:17:12.079Z,16.05
2018-08-16T02:19:41.012Z,16.05
2018-08-16T02:22:09.965Z,16.08
2018-08-16T02:24:38.904Z,16.12
2018-08-16T02:27:07.854Z,16.17
2018-08-16T02:29:36.822Z,16.20
2018-08-16T02:32:05.784Z,16.26
2018-08-16T02:34:34.715Z,16.30
2018-08-16T02:37:04.029Z,16.30
2018-08-16T02:39:33.029Z,16.31
2018-08-16T02:42:01.952Z,16.34
2018-08-16T02:44:30.881Z,16.33
2018-08-16T02:46:59.815Z,16.31
2018-08-16T02:49:28.740Z,16.29
2018-08-16T02:51:57.684Z,16.32
2018-08-16T02:54:26.615Z,16.32
2018-08-16T02:56:55.516Z,16.25
2018-08-16T02:59:24.463Z,16.32
2018-08-16T03:01:53.395Z,16.35
2018-08-16T03:04:22.311Z,16.35
2018-08-16T03:06:51.353Z,16.38
2018-08-16T03:09:20.452Z,16.39
2018-08-16T03:11:49.448Z,16.26
2018-08-16T03:14:18.389Z,16.17
2018-08-16T03:16:47.378Z,16.15
2018-08-16T03:19:16.381Z,16.07
2018-08-16T03:21:45.320Z,16.01
2018-08-16T03:24:14.288Z,15.99
2018-08-16T03:26:43.249Z,16.03
2018-08-16T03:29:12.228Z,16.03
2018-08-16T03:31:41.580Z,16.02
2018-08-16T03:34:10.497Z,16.03
2018-08-16T03:36:39.525Z,15.99
2018-08-16T03:39:09.287Z,16.04
2018-08-16T03:41:38.322Z,16.00
2018-08-16T03:44:07.940Z,16.06
2018-08-16T03:46:36.880Z,16.04
2018-08-16T03:49:06.117Z,16.04
2018-08-16T03:51:35.101Z,16.00
2018-08-16T03:54:04.057Z,15.99
2018-08-16T03:56:35.111Z,15.98
2018-08-16T03:59:04.092Z,16.03
2018-08-16T04:01:33.438Z,16.03
2018-08-16T04:04:02.449Z,16.08
2018-08-16T04:06:31.376Z,16.16
2018-08-16T04:09:00.336Z,16.19
2018-08-16T04:11:29.286Z,16.23
2018-08-16T04:13:58.238Z,16.26
2018-08-16T04:16:27.189Z,16.24
2018-08-16T04:18:56.124Z,16.33
2018-08-16T04:21:25.085Z,16.22
2018-08-16T04:23:54.066Z,16.24
2018-08-16T04:26:23.172Z,16.22
2018-08-16T04:28:52.190Z,16.28
2018-08-16T04:31:21.155Z,16.31
2018-08-16T04:33:50.106Z,16.32
2018-08-16T04:36:19.082Z,16.33
2018-08-16T04:38:48.057Z,16.37
2018-08-16T04:41:19.253Z,16.39
2018-08-16T04:43:48.579Z,16.36
2018-08-16T04:46:17.504Z,16.49
2018-08-16T04:48:46.471Z,16.65
2018-08-16T04:51:22.880Z,16.66
2018-08-16T04:53:52.083Z,16.54
2018-08-16T04:56:21.071Z,16.46
2018-08-16T04:58:50.013Z,16.43
2018-08-16T05:01:22.279Z,16.54
2018-08-16T05:03:51.548Z,16.61
2018-08-16T05:06:20.542Z,16.56
2018-08-16T05:08:49.554Z,16.68
2018-08-16T05:11:19.880Z,16.73
2018-08-16T05:13:48.840Z,16.77
2018-08-16T05:16:17.767Z,16.78
2018-08-16T05:18:46.806Z,16.85
2018-08-16T05:21:16.575Z,16.92
2018-08-16T05:23:46.710Z,16.99
2018-08-16T05:26:15.765Z,16.97
2018-08-16T05:28:44.736Z,17.02
2018-08-16T05:31:14.967Z,17.02
2018-08-16T05:33:44.027Z,17.12
2018-08-16T05:36:13.006Z,17.19
2018-08-16T05:38:41.964Z,17.21
2018-08-16T05:41:12.996Z,17.47
2018-08-16T05:43:42.012Z,17.62
2018-08-16T05:46:10.953Z,17.79
2018-08-16T05:48:39.937Z,18.04
2018-08-16T05:51:08.874Z,18.24
2018-08-16T05:53:37.830Z,18.61
2018-08-16T05:56:06.936Z,18.84
2018-08-16T05:58:35.877Z,19.21
2018-08-16T06:01:08.758Z,19.01
2018-08-16T06:03:38.095Z,19.05
2018-08-16T06:06:07.288Z,19.00
2018-08-16T06:08:36.245Z,19.76
2018-08-16T06:11:05.222Z,20.86
2018-08-16T06:13:34.273Z,20.92
2018-08-16T06:16:03.212Z,21.22
2018-08-16T06:18:32.133Z,21.73
2018-08-16T06:21:01.040Z,21.77
2018-08-16T06:23:30.084Z,22.15
2018-08-16T06:25:59.152Z,21.68
2018-08-16T06:28:28.259Z,22.62
2018-08-16T06:30:59.468Z,23.13
2018-08-16T06:33:28.504Z,24.06
2018-08-16T06:35:57.468Z,23.56
2018-08-16T06:38:26.424Z,23.72
2018-08-16T06:41:03.327Z,23.20
2018-08-16T06:43:32.762Z,23.76
2018-08-16T06:46:01.754Z,23.21
2018-08-16T06:48:30.696Z,23.79
2018-08-16T06:50:59.677Z,24.89
2018-08-16T06:53:28.953Z,25.53
2018-08-16T06:55:57.876Z,25.60
2018-08-16T06:58:26.887Z,25.53
2018-08-16T07:00:56.374Z,26.47
2018-08-16T07:03:25.313Z,25.97
2018-08-16T07:05:54.278Z,26.41
2018-08-16T07:08:23.212Z,26.12
2018-08-16T07:10:52.125Z,26.19
2018-08-16T07:13:21.575Z,26.68
2018-08-16T07:15:50.608Z,26.65
2018-08-16T07:18:19.536Z,27.88
2018-08-16T07:20:52.425Z,27.39
2018-08-16T07:23:21.441Z,26.95
2018-08-16T07:25:50.371Z,27.61
2018-08-16T07:28:19.472Z,26.28
2018-08-16T07:30:48.385Z,26.06
2018-08-16T07:33:17.368Z,25.75
2018-08-16T07:35:46.336Z,26.06
2018-08-16T07:38:15.289Z,26.33
2018-08-16T07:40:44.230Z,27.11
2018-08-16T07:43:13.167Z,26.77
2018-08-16T07:45:42.237Z,26.20
2018-08-16T07:48:11.077Z,27.56
2018-08-16T07:50:40.052Z,27.86
2018-08-16T07:53:09.006Z,29.31
2018-08-16T07:55:37.929Z,29.80
2018-08-16T07:58:06.905Z,29.50
2018-08-16T08:00:35.890Z,29.70
2018-08-16T08:03:04.877Z,29.67
2018-08-16T08:05:33.929Z,29.86
2018-08-16T08:08:02.870Z,29.20
2018-08-16T08:10:31.834Z,29.42
2018-08-16T08:13:00.818Z,30.03
2018-08-16T08:15:29.814Z,29.91
2018-08-16T08:17:58.739Z,29.72
2018-08-16T08:20:27.688Z,29.02
2018-08-16T08:22:56.648Z,29.44
2018-08-16T08:25:25.669Z,30.59
2018-08-16T08:27:54.574Z,30.29
2018-08-16T08:30:23.632Z,30.04
2018-08-16T08:32:52.597Z,30.11
2018-08-16T08:35:21.626Z,31.31
2018-08-16T08:37:57.957Z,31.62
2018-08-16T08:40:28.287Z,32.05
2018-08-16T08:42:58.300Z,31.39
2018-08-16T08:45:27.209Z,31.30
2018-08-16T08:47:56.807Z,30.85
2018-08-16T08:50:26.422Z,31.91
2018-08-16T08:53:09.226Z,32.95
2018-08-16T08:55:49.716Z,32.33
2018-08-16T08:58:30.172Z,31.90
2018-08-16T09:00:59.249Z,32.02
2018-08-16T09:03:28.186Z,33.10
2018-08-16T09:05:57.148Z,33.54
2018-08-16T09:08:26.085Z,33.27
2018-08-16T09:11:11.768Z,32.26
2018-08-16T09:13:53.464Z,32.67
2018-08-16T09:16:30.392Z,32.17
2018-08-16T09:18:59.609Z,31.82
2018-08-16T09:21:29.118Z,32.83
2018-08-16T09:23:58.124Z,32.78
2018-08-16T09:26:32.403Z,33.29
2018-08-16T09:29:01.336Z,32.24
2018-08-16T09:31:41.753Z,32.95
2018-08-16T09:34:23.985Z,33.21
2018-08-16T09:36:52.904Z,34.41
2018-08-16T09:39:21.922Z,34.36
2018-08-16T09:41:52.573Z,34.48
2018-08-16T09:44:21.604Z,35.27
2018-08-16T09:47:09.473Z,35.34
2018-08-16T09:49:42.383Z,35.93
2018-08-16T09:52:12.014Z,36.02
2018-08-16T09:54:40.950Z,35.62
2018-08-16T09:57:10.949Z,34.15
2018-08-16T09:59:39.969Z,35.29
2018-08-16T10:02:12.206Z,35.04
2018-08-16T10:04:41.112Z,33.03
2018-08-16T10:07:10.052Z,33.30
2018-08-16T10:09:39.065Z,33.60
2018-08-16T10:12:08.001Z,32.57
2018-08-16T10:14:36.916Z,30.75
2018-08-16T10:17:05.868Z,31.67
2018-08-16T10:19:34.844Z,32.67
2018-08-16T10:22:03.783Z,33.48
2018-08-16T10:24:32.737Z,33.95
2018-08-16T10:27:01.854Z,33.95
2018-08-16T10:29:30.684Z,33.27
2018-08-16T10:32:01.255Z,33.15
2018-08-16T10:34:31.351Z,31.73
2018-08-16T10:37:01.608Z,32.56
2018-08-16T10:39:30.920Z,33.25
2018-08-16T10:42:04.445Z,34.26
2018-08-16T10:44:33.580Z,35.26
2018-08-16T10:47:02.512Z,35.73
2018-08-16T10:49:31.503Z,35.18
2018-08-16T10:52:03.957Z,34.90
2018-08-16T10:54:33.056Z,33.46
2018-08-16T10:57:01.997Z,33.90
2018-08-16T10:59:30.960Z,34.51
2018-08-16T11:02:00.517Z,32.66
2018-08-16T11:04:29.586Z,32.67
2018-08-16T11:06:58.633Z,32.92
2018-08-16T11:09:27.573Z,33.70
2018-08-16T11:11:56.976Z,33.21
2018-08-16T11:14:26.005Z,33.95
2018-08-16T11:16:55.036Z,35.05
2018-08-16T11:19:23.965Z,35.56
2018-08-16T11:21:56.125Z,35.78
2018-08-16T11:24:25.089Z,35.13
2018-08-16T11:26:54.032Z,35.25
2018-08-16T11:29:23.240Z,36.20
2018-08-16T11:31:53.374Z,35.80
2018-08-16T11:34:22.368Z,36.12
2018-08-16T11:36:51.306Z,36.38
2018-08-16T11:39:20.308Z,35.99
2018-08-16T11:41:50.573Z,34.95
2018-08-16T11:44:19.517Z,34.25
2018-08-16T11:46:48.464Z,35.02
2018-08-16T11:49:17.402Z,34.18
2018-08-16T11:51:46.341Z,34.31
2018-08-16T11:54:18.371Z,35.07
2018-08-16T11:56:47.345Z,35.23
2018-08-16T11:59:16.292Z,36.61
2018-08-16T12:01:46.413Z,35.65
2018-08-16T12:04:15.378Z,36.88
2018-08-16T12:06:44.566Z,35.05
2018-08-16T12:09:13.512Z,35.98
2018-08-16T12:11:42.481Z,36.01
2018-08-16T12:14:11.408Z,35.14
2018-08-16T12:16:40.360Z,33.96
2018-08-16T12:19:09.314Z,34.24
2018-08-16T12:21:38.257Z,33.46
2018-08-16T12:24:07.217Z,34.30
2018-08-16T12:26:36.392Z,34.74
2018-08-16T12:29:05.392Z,35.37
2018-08-16T12:31:37.466Z,35.70
2018-08-16T12:34:06.497Z,35.21
2018-08-16T12:36:35.472Z,36.34
2018-08-16T12:39:05.713Z,35.87
2018-08-16T12:41:37.373Z,35.88
2018-08-16T12:44:06.397Z,35.94
2018-08-16T12:46:35.419Z,36.51
2018-08-16T12:49:04.456Z,35.13
2018-08-16T12:51:33.934Z,33.29
2018-08-16T12:54:02.900Z,33.03
2018-08-16T12:56:31.848Z,32.53
2018-08-16T12:59:00.883Z,31.98
2018-08-16T13:01:31.210Z,32.06
2018-08-16T13:04:00.145Z,32.95
2018-08-16T13:06:29.156Z,34.26
2018-08-16T13:08:58.126Z,34.89
2018-08-16T13:11:27.142Z,35.22
2018-08-16T13:13:56.107Z,33.78
2018-08-16T13:16:25.088Z,34.74
2018-08-16T13:18:54.784Z,34.96
2018-08-16T13:21:27.937Z,34.84
2018-08-16T13:23:56.976Z,34.15
2018-08-16T13:26:25.992Z,34.61
2018-08-16T13:28:54.947Z,34.46
2018-08-16T13:31:24.725Z,34.48
2018-08-16T13:33:54.047Z,34.41
2018-08-16T13:36:23.025Z,34.16
2018-08-16T13:38:51.995Z,34.81
2018-08-16T13:41:21.447Z,35.48
2018-08-16T13:43:50.612Z,33.72
2018-08-16T13:46:19.550Z,34.06
2018-08-16T13:48:48.507Z,35.11
2018-08-16T13:51:22.393Z,35.19
2018-08-16T13:53:51.335Z,35.55
2018-08-16T13:56:20.316Z,35.67
2018-08-16T13:58:49.333Z,36.18
2018-08-16T14:01:18.277Z,36.36
2018-08-16T14:03:47.261Z,36.19
2018-08-16T14:06:16.212Z,36.24
2018-08-16T14:08:45.122Z,36.28
2018-08-16T14:11:14.103Z,34.87
2018-08-16T14:13:43.061Z,34.49
2018-08-16T14:16:11.991Z,32.81
2018-08-16T14:18:41.011Z,33.78
2018-08-16T14:21:09.957Z,34.48
2018-08-16T14:23:39.123Z,35.07
2018-08-16T14:26:08.076Z,34.86
2018-08-16T14:28:37.518Z,35.19
2018-08-16T14:31:06.475Z,34.53
2018-08-16T14:33:36.514Z,34.73
2018-08-16T14:36:05.439Z,33.15
2018-08-16T14:38:34.504Z,32.73
2018-08-16T14:41:03.458Z,33.29
2018-08-16T14:43:32.452Z,32.59
2018-08-16T14:46:01.526Z,32.63
2018-08-16T14:48:30.764Z,32.74
2018-08-16T14:50:59.729Z,33.33
2018-08-16T14:53:28.684Z,33.15
2018-08-16T14:55:57.652Z,32.79
2018-08-16T14:58:26.751Z,32.63
2018-08-16T15:00:55.860Z,33.46
2018-08-16T15:03:24.844Z,33.92
2018-08-16T15:05:53.761Z,33.50
2018-08-16T15:08:22.737Z,33.70
2018-08-16T15:10:51.725Z,33.16
2018-08-16T15:13:20.719Z,32.11
2018-08-16T15:15:49.687Z,32.31
2018-08-16T15:18:18.672Z,32.65
2018-08-16T15:20:47.659Z,33.13
2018-08-16T15:23:16.592Z,33.89
2018-08-16T15:25:45.511Z,33.69
2018-08-16T15:28:29.223Z,33.29
2018-08-16T15:31:00.764Z,32.86
2018-08-16T15:33:29.763Z,33.28
2018-08-16T15:35:58.696Z,32.40
2018-08-16T15:38:27.643Z,32.17
2018-08-16T15:40:56.651Z,31.71
2018-08-16T15:43:25.637Z,32.11
2018-08-16T15:45:54.596Z,31.84
2018-08-16T15:48:24.326Z,32.23
2018-08-16T15:50:53.257Z,32.01
2018-08-16T15:53:22.244Z,32.79
2018-08-16T15:55:51.136Z,32.26
2018-08-16T15:58:20.125Z,32.36
2018-08-16T16:00:49.292Z,32.15
2018-08-16T16:03:18.205Z,31.75
2018-08-16T16:05:47.282Z,31.64
2018-08-16T16:08:16.144Z,31.67
2018-08-16T16:10:45.083Z,31.50
2018-08-16T16:13:14.064Z,32.12
2018-08-16T16:15:43.009Z,31.60
2018-08-16T16:18:11.950Z,31.11
2018-08-16T16:20:40.863Z,31.52
2018-08-16T16:23:09.792Z,30.83
2018-08-16T16:25:38.729Z,31.16
2018-08-16T16:28:07.868Z,30.97
2018-08-16T16:30:36.772Z,31.16
2018-08-16T16:33:05.739Z,31.21
2018-08-16T16:35:34.653Z,30.91
2018-08-16T16:38:03.611Z,30.88
2018-08-16T16:40:32.537Z,30.56
2018-08-16T16:43:01.594Z,30.24
2018-08-16T16:45:30.583Z,30.22
2018-08-16T16:48:00.167Z,30.22
2018-08-16T16:50:29.683Z,30.39
2018-08-16T16:52:58.827Z,30.37
2018-08-16T16:55:27.913Z,30.22
2018-08-16T16:57:56.889Z,30.36
2018-08-16T17:00:25.848Z,30.34
2018-08-16T17:02:54.829Z,30.39
2018-08-16T17:05:23.833Z,30.21
2018-08-16T17:07:52.775Z,30.25
2018-08-16T17:10:21.797Z,30.01
2018-08-16T17:12:50.725Z,29.92
2018-08-16T17:15:19.766Z,29.72
2018-08-16T17:17:48.741Z,29.56
2018-08-16T17:20:17.726Z,29.46
2018-08-16T17:22:47.517Z,29.37
2018-08-16T17:25:17.174Z,29.30
2018-08-16T17:27:46.137Z,29.30
2018-08-16T17:30:15.141Z,29.24
2018-08-16T17:32:44.123Z,29.14
2018-08-16T17:35:14.099Z,29.07
2018-08-16T17:37:43.163Z,29.01
2018-08-16T17:40:12.209Z,28.95
2018-08-16T17:42:41.387Z,28.90
2018-08-16T17:45:10.382Z,28.85
2018-08-16T17:47:39.533Z,28.72
2018-08-16T17:50:08.498Z,28.72
2018-08-16T17:52:37.470Z,28.60
2018-08-16T17:55:06.566Z,28.54
2018-08-16T17:57:35.560Z,28.43
2018-08-16T18:00:06.218Z,28.35
2018-08-16T18:02:35.961Z,28.25
2018-08-16T18:05:05.209Z,28.16
2018-08-16T18:07:34.338Z,28.09
2018-08-16T18:10:03.416Z,28.00
2018-08-16T18:12:32.385Z,27.96
2018-08-16T18:15:01.364Z,27.84
2018-08-16T18:17:30.419Z,27.78
2018-08-16T18:19:59.387Z,27.62
2018-08-16T18:22:28.406Z,27.51
2018-08-16T18:24:57.378Z,27.40
2018-08-16T18:27:26.368Z,27.32
2018-08-16T18:29:55.741Z,27.23
2018-08-16T18:32:25.154Z,27.10
2018-08-16T18:34:54.802Z,27.03
2018-08-16T18:37:24.515Z,26.91
2018-08-16T18:39:54.040Z,26.82
2018-08-16T18:42:23.985Z,26.76
2018-08-16T18:44:53.067Z,26.61
2018-08-16T18:47:21.955Z,26.56
2018-08-16T18:49:50.998Z,26.47
2018-08-16T18:52:19.962Z,26.36
2018-08-16T18:54:48.993Z,26.25
2018-08-16T18:57:17.979Z,26.16
2018-08-16T18:59:46.997Z,26.10
2018-08-16T19:02:15.948Z,26.03
2018-08-16T19:04:44.933Z,25.89
2018-08-16T19:07:13.865Z,25.82
2018-08-16T19:09:43.046Z,25.73
2018-08-16T19:12:12.095Z,25.66
2018-08-16T19:14:42.087Z,25.48
2018-08-16T19:17:12.101Z,25.37
2018-08-16T19:19:41.095Z,25.26
2018-08-16T19:22:10.169Z,25.22
2018-08-16T19:24:39.133Z,25.09
2018-08-16T19:27:08.130Z,25.07
2018-08-16T19:29:37.128Z,25.01
2018-08-16T19:32:06.593Z,24.83
2018-08-16T19:34:36.221Z,24.74
2018-08-16T19:37:05.420Z,24.76
2018-08-16T19:39:34.392Z,24.69
2018-08-16T19:42:03.340Z,24.59
2018-08-16T19:44:32.560Z,24.47
2018-08-16T19:47:01.642Z,24.34
2018-08-16T19:49:31.381Z,24.37
2018-08-16T19:52:01.091Z,24.28
2018-08-16T19:54:30.146Z,24.26
2018-08-16T19:56:59.267Z,24.20
2018-08-16T19:59:28.311Z,24.09
2018-08-16T20:01:57.278Z,24.02
2018-08-16T20:04:26.370Z,23.97
2018-08-16T20:06:55.338Z,23.90
2018-08-16T20:09:24.235Z,23.90
2018-08-16T20:11:53.228Z,23.78
2018-08-16T20:14:22.349Z,23.70
2018-08-16T20:16:51.296Z,23.73
2018-08-16T20:19:20.293Z,23.76
2018-08-16T20:21:49.218Z,23.64
2018-08-16T20:24:18.454Z,23.52
2018-08-16T20:26:48.078Z,23.43
2018-08-16T20:29:17.046Z,23.37
2018-08-16T20:31:46.138Z,23.32
2018-08-16T20:34:15.064Z,23.22
2018-08-16T20:36:44.034Z,23.13
2018-08-16T20:39:13.013Z,23.12
2018-08-16T20:41:41.980Z,23.01
2018-08-16T20:44:10.935Z,22.95
2018-08-16T20:46:39.935Z,22.94
2018-08-16T20:49:08.961Z,22.96
2018-08-16T20:51:38.004Z,22.88
2018-08-16T20:54:06.979Z,22.81
2018-08-16T20:56:35.927Z,22.87
2018-08-16T20:59:05.572Z,22.91
2018-08-16T21:01:35.217Z,22.88
2018-08-16T21:04:04.348Z,22.88
2018-08-16T21:06:33.293Z,22.86
2018-08-16T21:09:02.308Z,22.70
2018-08-16T21:11:31.307Z,22.65
2018-08-16T21:14:00.310Z,22.63
2018-08-16T21:16:29.316Z,22.54
2018-08-16T21:18:58.485Z,22.51
2018-08-16T21:21:29.143Z,22.49
2018-08-16T21:23:58.432Z,22.38
2018-08-16T21:26:27.466Z,22.34
2018-08-16T21:28:56.522Z,22.30
2018-08-16T21:31:25.570Z,22.19
2018-08-16T21:33:55.351Z,22.18
2018-08-16T21:36:25.016Z,22.11
2018-08-16T21:38:54.023Z,22.09
2018-08-16T21:41:23.080Z,22.13
2018-08-16T21:43:52.229Z,22.22
2018-08-16T21:46:21.433Z,22.24
2018-08-16T21:48:50.460Z,22.21
2018-08-16T21:51:19.496Z,22.21
2018-08-16T21:53:48.507Z,22.14
2018-08-16T21:56:17.497Z,22.12
2018-08-16T21:58:46.480Z,22.04
2018-08-16T22:01:15.996Z,22.05
2018-08-16T22:03:45.061Z,22.02
2018-08-16T22:07:29.063Z,21.99
2018-08-16T22:09:58.740Z,21.74
2018-08-16T22:12:28.527Z,21.65
2018-08-16T22:14:57.494Z,21.61
2018-08-16T22:17:26.634Z,21.52
2018-08-16T22:19:56.447Z,21.50
2018-08-16T22:22:26.201Z,21.44
2018-08-16T22:24:56.010Z,21.38
2018-08-16T22:27:24.914Z,21.33
2018-08-16T22:29:53.852Z,21.28
2018-08-16T22:32:22.773Z,21.30
2018-08-16T22:34:51.699Z,21.23
2018-08-16T22:37:20.613Z,21.14
2018-08-16T22:39:49.569Z,21.07
2018-08-16T22:42:18.520Z,21.11
2018-08-16T22:44:47.516Z,21.12
2018-08-16T22:47:16.458Z,21.07
2018-08-16T22:49:45.350Z,21.08
2018-08-16T22:52:14.299Z,21.02
2018-08-16T22:54:43.307Z,20.98
2018-08-16T22:57:12.295Z,20.93
2018-08-16T22:59:41.244Z,20.90
2018-08-16T23:02:10.176Z,20.83
2018-08-16T23:04:39.109Z,20.72
2018-08-16T23:07:08.303Z,20.70
2018-08-16T23:09:37.664Z,20.71
2018-08-16T23:12:06.677Z,20.64
2018-08-16T23:14:35.886Z,20.62
2018-08-16T23:17:04.780Z,20.63
2018-08-16T23:19:33.715Z,20.66
2018-08-16T23:22:02.640Z,20.69
2018-08-16T23:24:31.560Z,20.71
2018-08-16T23:27:00.495Z,20.70
2018-08-16T23:29:29.445Z,20.72
2018-08-16T23:31:58.384Z,20.73
2018-08-16T23:34:27.313Z,20.68
2018-08-16T23:36:56.324Z,20.64
2018-08-16T23:39:25.437Z,20.62
2018-08-16T23:41:54.368Z,20.58
2018-08-16T23:44:23.290Z,20.52
2018-08-16T23:46:52.516Z,20.56
2018-08-16T23:49:21.472Z,20.52
2018-08-16T23:51:50.399Z,20.49
2018-08-16T23:54:19.376Z,20.43
2018-08-16T23:56:48.333Z,20.38
2018-08-16T23:59:17.264Z,20.36
